createdAt,value
2017-06-19T00:02:13.135Z,2.30
2017-06-19T00:04:40.731Z,2.83
2017-06-19T00:07:08.303Z,2.67
2017-06-19T00:09:35.882Z,2.30
2017-06-19T00:12:04.229Z,2.67
2017-06-19T00:14:31.820Z,2.60
2017-06-19T00:17:00.157Z,2.80
2017-06-19T00:19:27.748Z,2.93
2017-06-19T00:21:55.328Z,2.70
2017-06-19T00:24:23.662Z,2.50
2017-06-19T00:26:51.256Z,2.63
2017-06-19T00:29:18.815Z,2.70
2017-06-19T00:31:46.410Z,2.70
2017-06-19T00:34:13.998Z,2.10
2017-06-19T00:36:41.612Z,2.87
2017-06-19T00:39:09.170Z,2.70
2017-06-19T00:41:36.790Z,2.73
2017-06-19T00:44:04.379Z,2.97
2017-06-19T00:46:31.971Z,2.57
2017-06-19T00:48:59.573Z,2.60
2017-06-19T00:51:27.942Z,2.17
2017-06-19T00:53:55.539Z,2.87
2017-06-19T00:56:23.125Z,2.40
2017-06-19T00:58:50.701Z,2.60
2017-06-19T01:01:18.303Z,2.77
2017-06-19T01:03:45.885Z,2.83
2017-06-19T01:06:13.461Z,2.30
2017-06-19T01:08:41.049Z,3.00
2017-06-19T01:11:08.658Z,2.10
2017-06-19T01:13:36.244Z,2.80
2017-06-19T01:16:03.819Z,3.23
2017-06-19T01:18:31.424Z,2.60
2017-06-19T01:20:59.000Z,3.40
2017-06-19T01:23:26.576Z,3.00
2017-06-19T01:25:54.167Z,2.97
2017-06-19T01:28:21.751Z,2.90
2017-06-19T01:30:49.333Z,2.90
2017-06-19T01:33:16.906Z,3.17
2017-06-19T01:35:44.487Z,3.28
2017-06-19T01:38:12.048Z,3.00
2017-06-19T01:40:39.923Z,3.28
2017-06-19T01:43:07.501Z,3.30
2017-06-19T01:45:35.869Z,3.00
2017-06-19T01:48:03.465Z,3.45
2017-06-19T01:50:31.034Z,3.28
2017-06-19T01:52:58.659Z,2.97
2017-06-19T01:55:27.004Z,2.90
2017-06-19T01:57:54.623Z,3.13
2017-06-19T02:00:22.209Z,2.72
2017-06-19T02:02:49.813Z,3.23
2017-06-19T02:05:17.398Z,3.50
2017-06-19T02:07:45.007Z,3.10
2017-06-19T02:10:12.608Z,3.10
2017-06-19T02:12:40.188Z,3.50
2017-06-19T02:15:07.807Z,2.90
2017-06-19T02:17:35.373Z,3.17
2017-06-19T02:20:02.981Z,3.58
2017-06-19T02:22:30.555Z,3.75
2017-06-19T02:24:58.185Z,3.05
2017-06-19T02:27:25.761Z,3.03
2017-06-19T02:29:53.332Z,3.30
2017-06-19T02:32:20.929Z,3.55
2017-06-19T02:34:49.278Z,2.90
2017-06-19T02:37:16.891Z,3.37
2017-06-19T02:39:44.475Z,3.20
2017-06-19T02:42:12.369Z,2.90
2017-06-19T02:44:39.955Z,2.50
2017-06-19T02:47:08.327Z,3.00
2017-06-19T02:49:36.684Z,3.28
2017-06-19T02:52:04.278Z,3.22
2017-06-19T02:54:31.871Z,3.50
2017-06-19T02:56:59.446Z,3.58
2017-06-19T02:59:27.062Z,3.85
2017-06-19T03:01:54.649Z,3.30
2017-06-19T03:04:22.227Z,3.50
2017-06-19T03:06:49.827Z,3.10
2017-06-19T03:09:18.177Z,3.85
2017-06-19T03:11:45.777Z,3.35
2017-06-19T03:14:13.365Z,3.03
2017-06-19T03:16:40.960Z,3.35
2017-06-19T03:19:08.533Z,3.28
2017-06-19T03:21:37.181Z,3.33
2017-06-19T03:24:04.771Z,3.15
2017-06-19T03:26:33.123Z,3.67
2017-06-19T03:29:00.711Z,3.30
2017-06-19T03:31:29.057Z,3.50
2017-06-19T03:33:56.648Z,3.60
2017-06-19T03:36:25.031Z,3.70
2017-06-19T03:38:53.420Z,3.80
2017-06-19T03:41:21.017Z,3.80
2017-06-19T03:43:48.598Z,3.12
2017-06-19T03:46:16.180Z,3.60
2017-06-19T03:48:44.520Z,4.00
2017-06-19T03:51:12.123Z,3.50
2017-06-19T03:53:40.463Z,3.33
2017-06-19T03:56:08.042Z,4.68
2017-06-19T03:58:35.624Z,3.90
2017-06-19T04:01:04.005Z,4.45
2017-06-19T04:03:31.605Z,4.05
2017-06-19T04:05:59.185Z,3.67
2017-06-19T04:08:26.762Z,3.55
2017-06-19T04:10:55.105Z,4.50
2017-06-19T04:13:22.672Z,4.03
2017-06-19T04:15:50.263Z,3.72
2017-06-19T04:18:17.847Z,3.33
2017-06-19T04:20:45.470Z,3.90
2017-06-19T04:23:13.047Z,4.10
2017-06-19T04:25:41.427Z,3.25
2017-06-19T04:28:09.014Z,4.00
2017-06-19T04:30:36.585Z,3.80
2017-06-19T04:33:04.174Z,3.13
2017-06-19T04:35:31.773Z,3.87
2017-06-19T04:37:59.364Z,3.63
2017-06-19T04:40:26.929Z,3.73
2017-06-19T04:42:54.504Z,3.50
2017-06-19T04:45:22.095Z,3.03
2017-06-19T04:47:50.475Z,3.43
2017-06-19T04:50:18.050Z,3.60
2017-06-19T04:52:45.639Z,3.40
2017-06-19T04:55:13.214Z,2.90
2017-06-19T04:57:40.772Z,3.30
2017-06-19T05:00:08.362Z,3.40
2017-06-19T05:02:35.934Z,3.20
2017-06-19T05:05:04.285Z,3.80
2017-06-19T05:07:31.856Z,3.30
2017-06-19T05:09:59.453Z,3.00
2017-06-19T05:12:27.037Z,3.37
2017-06-19T05:14:54.614Z,3.77
2017-06-19T05:17:22.198Z,3.27
2017-06-19T05:19:49.768Z,3.53
2017-06-19T05:22:17.344Z,3.00
2017-06-19T05:24:44.933Z,3.57
2017-06-19T05:27:12.592Z,3.43
2017-06-19T05:29:40.149Z,3.43
2017-06-19T05:32:07.708Z,2.90
2017-06-19T05:34:35.295Z,3.07
2017-06-19T05:37:02.876Z,2.73
2017-06-19T05:39:31.252Z,2.80
2017-06-19T05:41:59.587Z,3.10
2017-06-19T05:44:27.181Z,3.40
2017-06-19T05:46:55.531Z,3.20
2017-06-19T05:49:23.399Z,3.43
2017-06-19T05:51:50.978Z,3.23
2017-06-19T05:54:18.575Z,3.03
2017-06-19T05:56:46.172Z,3.40
2017-06-19T05:59:13.762Z,2.63
2017-06-19T06:01:42.112Z,2.63
2017-06-19T06:04:09.688Z,3.10
2017-06-19T06:06:37.272Z,2.93
2017-06-19T06:09:04.846Z,3.33
2017-06-19T06:11:32.418Z,2.70
2017-06-19T06:14:00.027Z,2.70
2017-06-19T06:16:27.616Z,3.07
2017-06-19T06:18:55.199Z,2.90
2017-06-19T06:21:22.773Z,2.40
2017-06-19T06:23:50.386Z,2.43
2017-06-19T06:26:18.727Z,2.47
2017-06-19T06:28:46.317Z,2.50
2017-06-19T06:31:14.661Z,2.43
2017-06-19T06:33:42.230Z,2.40
2017-06-19T06:36:09.860Z,2.57
2017-06-19T06:38:37.449Z,2.40
2017-06-19T06:41:05.025Z,2.70
2017-06-19T06:43:32.602Z,2.40
2017-06-19T06:46:00.182Z,2.30
2017-06-19T06:48:27.802Z,2.00
2017-06-19T06:50:56.135Z,2.20
2017-06-19T06:53:23.747Z,2.00
2017-06-19T06:55:51.332Z,2.13
2017-06-19T06:58:18.975Z,1.93
2017-06-19T07:00:46.548Z,2.43
2017-06-19T07:03:14.124Z,2.10
2017-06-19T07:05:41.701Z,2.00
2017-06-19T07:08:09.332Z,2.03
2017-06-19T07:10:36.901Z,1.90
2017-06-19T07:13:04.470Z,2.10
2017-06-19T07:15:32.069Z,2.07
2017-06-19T07:18:00.566Z,2.10
2017-06-19T07:20:28.974Z,2.17
2017-06-19T07:22:56.542Z,2.20
2017-06-19T07:25:24.471Z,2.20
2017-06-19T07:27:52.840Z,2.20
2017-06-19T07:30:21.175Z,1.77
2017-06-19T07:32:48.768Z,2.30
2017-06-19T07:35:17.115Z,2.00
2017-06-19T07:37:44.698Z,2.47
2017-06-19T07:40:12.287Z,2.03
2017-06-19T07:42:39.862Z,2.20
2017-06-19T07:45:07.435Z,1.87
2017-06-19T07:47:35.028Z,2.63
2017-06-19T07:50:02.598Z,1.97
2017-06-19T07:52:31.250Z,2.00
2017-06-19T07:54:58.825Z,2.10
2017-06-19T07:57:26.401Z,2.00
2017-06-19T07:59:54.736Z,2.20
2017-06-19T08:02:22.298Z,2.00
2017-06-19T08:04:49.885Z,1.90
2017-06-19T08:07:17.448Z,2.00
2017-06-19T08:09:45.399Z,1.83
2017-06-19T08:12:12.966Z,2.10
2017-06-19T08:14:40.541Z,2.33
2017-06-19T08:17:08.880Z,1.80
2017-06-19T08:19:36.467Z,1.90
2017-06-19T08:22:07.892Z,1.90
2017-06-19T08:24:35.457Z,1.87
2017-06-19T08:27:03.040Z,1.90
2017-06-19T08:29:31.379Z,1.97
2017-06-19T08:31:59.206Z,1.70
2017-06-19T08:34:26.773Z,2.67
2017-06-19T08:36:54.333Z,2.07
2017-06-19T08:39:21.935Z,2.33
2017-06-19T08:41:49.501Z,2.23
2017-06-19T08:44:17.083Z,1.83
2017-06-19T08:46:44.673Z,2.10
2017-06-19T08:49:12.277Z,1.97
2017-06-19T08:51:39.835Z,1.70
2017-06-19T08:54:07.690Z,2.97
2017-06-19T08:56:35.259Z,1.90
2017-06-19T08:59:02.834Z,1.77
2017-06-19T09:01:30.521Z,2.03
2017-06-19T09:03:58.125Z,2.03
2017-06-19T09:06:25.723Z,1.90
2017-06-19T09:08:53.325Z,2.60
2017-06-19T09:11:21.163Z,1.80
2017-06-19T09:13:48.740Z,1.90
2017-06-19T09:16:16.311Z,1.63
2017-06-19T09:18:43.889Z,2.10
2017-06-19T09:21:11.466Z,2.10
2017-06-19T09:23:39.053Z,2.00
2017-06-19T09:26:06.619Z,2.20
2017-06-19T09:28:34.539Z,1.90
2017-06-19T09:31:02.119Z,1.90
2017-06-19T09:33:29.698Z,2.10
2017-06-19T09:35:57.272Z,2.20
2017-06-19T09:38:24.830Z,2.20
2017-06-19T09:40:52.448Z,2.10
2017-06-19T09:43:20.015Z,2.27
2017-06-19T09:45:47.925Z,1.93
2017-06-19T09:48:15.519Z,2.17
2017-06-19T09:50:43.097Z,2.00
2017-06-19T09:53:10.667Z,2.20
2017-06-19T09:55:38.252Z,1.90
2017-06-19T09:58:05.938Z,2.50
2017-06-19T10:00:33.511Z,2.20
2017-06-19T10:03:01.118Z,2.10
2017-06-19T10:05:28.688Z,2.00
2017-06-19T10:07:56.277Z,2.40
2017-06-19T10:10:23.852Z,1.90
2017-06-19T10:12:51.457Z,2.20
2017-06-19T10:15:19.023Z,2.10
2017-06-19T10:17:46.877Z,2.17
2017-06-19T10:20:14.457Z,1.90
2017-06-19T10:22:42.064Z,2.23
2017-06-19T10:25:09.667Z,2.20
2017-06-19T10:27:37.236Z,1.90
2017-06-19T10:30:04.835Z,2.20
2017-06-19T10:32:32.400Z,1.80
2017-06-19T10:34:59.997Z,2.00
2017-06-19T10:37:27.583Z,2.17
2017-06-19T10:39:55.551Z,1.90
2017-06-19T10:42:23.121Z,2.27
2017-06-19T10:44:50.694Z,2.53
2017-06-19T10:47:18.276Z,2.23
2017-06-19T10:49:46.624Z,2.43
2017-06-19T10:52:14.236Z,2.13
2017-06-19T10:54:41.813Z,2.00
2017-06-19T10:57:09.398Z,2.23
2017-06-19T10:59:36.971Z,2.67
2017-06-19T11:02:04.829Z,2.00
2017-06-19T11:04:33.226Z,2.03
2017-06-19T11:07:00.827Z,2.20
2017-06-19T11:09:28.407Z,1.90
2017-06-19T11:11:55.966Z,2.57
2017-06-19T11:14:23.528Z,2.27
2017-06-19T11:16:51.080Z,2.30
2017-06-19T11:19:18.654Z,2.57
2017-06-19T11:21:46.219Z,2.10
2017-06-19T11:24:13.793Z,2.20
2017-06-19T11:26:41.355Z,2.30
2017-06-19T11:29:08.912Z,2.33
2017-06-19T11:31:36.478Z,2.33
2017-06-19T11:34:04.038Z,2.47
2017-06-19T11:36:31.620Z,2.47
2017-06-19T11:38:59.176Z,2.40
2017-06-19T11:41:26.751Z,2.50
2017-06-19T11:43:54.315Z,2.57
2017-06-19T11:46:22.181Z,2.50
2017-06-19T11:48:49.735Z,2.17
2017-06-19T11:51:17.287Z,2.20
2017-06-19T11:53:44.860Z,2.27
2017-06-19T11:56:12.416Z,2.20
2017-06-19T11:58:39.994Z,2.67
2017-06-19T12:01:07.567Z,2.50
2017-06-19T12:03:35.163Z,2.60
2017-06-19T12:06:03.487Z,2.40
2017-06-19T12:08:31.356Z,2.43
2017-06-19T12:10:58.922Z,2.63
2017-06-19T12:13:26.474Z,2.23
2017-06-19T12:15:54.042Z,2.53
2017-06-19T12:18:21.610Z,2.40
2017-06-19T12:20:49.185Z,2.37
2017-06-19T12:23:16.768Z,2.50
2017-06-19T12:25:44.670Z,2.80
2017-06-19T12:28:12.221Z,2.50
2017-06-19T12:30:39.783Z,2.60
2017-06-19T12:33:07.369Z,2.93
2017-06-19T12:35:34.942Z,2.40
2017-06-19T12:38:02.534Z,2.93
2017-06-19T12:40:30.106Z,2.80
2017-06-19T12:42:57.671Z,2.60
2017-06-19T12:45:25.255Z,2.63
2017-06-19T12:47:53.126Z,2.50
2017-06-19T12:50:20.683Z,2.97
2017-06-19T12:52:48.254Z,2.57
2017-06-19T12:55:15.825Z,2.57
2017-06-19T12:57:44.176Z,2.50
2017-06-19T13:00:11.742Z,2.73
2017-06-19T13:02:39.331Z,3.23
2017-06-19T13:05:07.678Z,2.70
2017-06-19T13:07:35.240Z,2.90
2017-06-19T13:10:03.103Z,2.70
2017-06-19T13:12:30.673Z,2.70
2017-06-19T13:14:58.245Z,2.70
2017-06-19T13:17:26.589Z,2.83
2017-06-19T13:19:54.155Z,2.80
2017-06-19T13:22:21.735Z,3.20
2017-06-19T13:24:50.071Z,2.70
2017-06-19T13:27:17.638Z,2.70
2017-06-19T13:29:45.209Z,2.63
2017-06-19T13:32:13.158Z,2.80
2017-06-19T13:34:40.724Z,3.40
2017-06-19T13:37:08.282Z,2.90
2017-06-19T13:39:35.856Z,2.90
2017-06-19T13:42:03.401Z,2.60
2017-06-19T13:44:30.980Z,2.60
2017-06-19T13:46:58.534Z,2.87
2017-06-19T13:49:26.098Z,2.50
2017-06-19T13:51:53.654Z,2.53
2017-06-19T13:54:21.501Z,2.63
2017-06-19T13:56:49.062Z,2.67
2017-06-19T13:59:16.615Z,3.73
2017-06-19T14:01:44.182Z,2.83
2017-06-19T14:04:11.752Z,2.90
2017-06-19T14:06:39.322Z,2.67
2017-06-19T14:09:06.878Z,3.03
2017-06-19T14:11:35.230Z,2.70
2017-06-19T14:14:02.789Z,3.00
2017-06-19T14:16:30.642Z,2.80
2017-06-19T14:18:58.214Z,3.10
2017-06-19T14:21:25.803Z,3.10
2017-06-19T14:23:54.161Z,3.87
2017-06-19T14:26:21.716Z,2.70
2017-06-19T14:28:49.675Z,3.60
2017-06-19T14:31:17.250Z,3.10
2017-06-19T14:33:44.804Z,3.10
2017-06-19T14:36:12.384Z,3.30
2017-06-19T14:38:40.721Z,3.17
2017-06-19T14:41:08.298Z,2.70
2017-06-19T14:43:35.854Z,2.90
2017-06-19T14:46:03.430Z,2.90
2017-06-19T14:48:31.756Z,2.93
2017-06-19T14:50:59.634Z,2.83
2017-06-19T14:53:27.186Z,3.00
2017-06-19T14:55:54.754Z,3.40
2017-06-19T14:58:22.326Z,3.60
2017-06-19T15:00:49.894Z,3.13
2017-06-19T15:03:17.471Z,3.00
2017-06-19T15:05:45.792Z,2.97
2017-06-19T15:08:13.358Z,2.97
2017-06-19T15:10:40.916Z,2.90
2017-06-19T15:13:08.752Z,3.60
2017-06-19T15:15:36.318Z,2.53
2017-06-19T15:18:03.874Z,2.57
2017-06-19T15:20:31.437Z,2.50
2017-06-19T15:22:58.996Z,2.80
2017-06-19T15:25:26.590Z,2.83
2017-06-19T15:27:54.159Z,3.17
2017-06-19T15:30:21.723Z,3.30
2017-06-19T15:32:49.298Z,3.37
2017-06-19T15:35:17.963Z,3.00
2017-06-19T15:37:45.534Z,3.70
2017-06-19T15:40:13.105Z,3.63
2017-06-19T15:42:41.430Z,3.07
2017-06-19T15:45:08.992Z,3.00
2017-06-19T15:47:36.562Z,2.83
2017-06-19T15:50:04.135Z,2.97
2017-06-19T15:52:31.978Z,2.73
2017-06-19T15:54:59.568Z,2.70
2017-06-19T15:57:27.126Z,2.80
2017-06-19T15:59:54.697Z,2.60
2017-06-19T16:02:22.269Z,2.67
2017-06-19T16:04:51.123Z,2.50
2017-06-19T16:07:18.688Z,2.70
2017-06-19T16:09:46.622Z,2.53
2017-06-19T16:12:14.273Z,2.70
2017-06-19T16:14:41.857Z,3.20
2017-06-19T16:17:09.441Z,2.73
2017-06-19T16:19:37.014Z,2.57
2017-06-19T16:22:05.392Z,2.77
2017-06-19T16:24:33.719Z,3.00
2017-06-19T16:27:01.574Z,2.60
2017-06-19T16:29:29.130Z,3.07
2017-06-19T16:31:56.743Z,2.83
2017-06-19T16:34:24.320Z,3.20
2017-06-19T16:36:51.907Z,2.93
2017-06-19T16:39:19.479Z,3.00
2017-06-19T16:41:47.046Z,3.27
2017-06-19T16:44:14.628Z,2.60
2017-06-19T16:46:42.210Z,2.50
2017-06-19T16:49:10.534Z,2.47
2017-06-19T16:51:38.111Z,2.90
2017-06-19T16:54:05.690Z,2.70
2017-06-19T16:56:34.029Z,2.50
2017-06-19T16:59:01.587Z,3.50
2017-06-19T17:01:29.159Z,2.93
2017-06-19T17:03:56.739Z,2.60
2017-06-19T17:06:24.589Z,2.60
2017-06-19T17:08:52.136Z,2.70
2017-06-19T17:11:19.692Z,2.50
2017-06-19T17:13:47.298Z,3.20
2017-06-19T17:16:14.870Z,2.77
2017-06-19T17:18:42.471Z,3.07
2017-06-19T17:21:10.031Z,2.80
2017-06-19T17:23:37.631Z,2.70
2017-06-19T17:26:05.969Z,2.50
2017-06-19T17:28:33.544Z,2.77
2017-06-19T17:31:01.107Z,2.60
2017-06-19T17:33:29.745Z,3.00
2017-06-19T17:35:57.332Z,2.57
2017-06-19T17:38:24.890Z,3.03
2017-06-19T17:40:52.467Z,2.97
2017-06-19T17:43:20.048Z,2.60
2017-06-19T17:45:48.396Z,2.37
2017-06-19T17:48:15.961Z,2.50
2017-06-19T17:50:43.541Z,2.40
2017-06-19T17:53:11.883Z,3.00
2017-06-19T17:55:39.496Z,2.87
2017-06-19T17:58:07.099Z,2.40
2017-06-19T18:00:34.702Z,2.33
2017-06-19T18:03:02.270Z,2.53
2017-06-19T18:05:29.847Z,2.77
2017-06-19T18:07:57.716Z,2.27
2017-06-19T18:10:25.314Z,2.80
2017-06-19T18:12:52.961Z,2.67
2017-06-19T18:15:20.549Z,2.40
2017-06-19T18:17:48.880Z,3.07
2017-06-19T18:20:16.470Z,2.27
2017-06-19T18:22:44.036Z,2.40
2017-06-19T18:25:11.622Z,2.57
2017-06-19T18:27:39.187Z,2.20
2017-06-19T18:30:07.038Z,2.23
2017-06-19T18:32:35.375Z,2.77
2017-06-19T18:35:02.953Z,2.43
2017-06-19T18:37:30.536Z,3.20
2017-06-19T18:39:58.125Z,2.23
2017-06-19T18:42:25.718Z,2.63
2017-06-19T18:44:53.301Z,2.40
2017-06-19T18:47:21.643Z,2.50
2017-06-19T18:49:49.202Z,2.43
2017-06-19T18:52:17.076Z,2.47
2017-06-19T18:54:44.640Z,2.80
2017-06-19T18:57:12.214Z,2.60
2017-06-19T18:59:40.556Z,2.23
2017-06-19T19:02:08.170Z,2.03
2017-06-19T19:04:35.785Z,2.40
2017-06-19T19:07:03.376Z,2.77
2017-06-19T19:09:32.013Z,2.57
2017-06-19T19:11:59.609Z,2.50
2017-06-19T19:14:27.971Z,2.40
2017-06-19T19:16:55.579Z,2.47
2017-06-19T19:19:24.001Z,2.70
2017-06-19T19:21:51.602Z,3.00
2017-06-19T19:24:19.170Z,3.40
2017-06-19T19:26:46.764Z,4.00
2017-06-19T19:29:14.325Z,3.43
2017-06-19T19:31:42.198Z,3.20
2017-06-19T19:34:09.765Z,3.70
2017-06-19T19:36:37.324Z,3.37
2017-06-19T19:39:04.904Z,3.07
2017-06-19T19:41:32.466Z,2.93
2017-06-19T19:44:00.890Z,3.10
2017-06-19T19:46:28.447Z,3.00
2017-06-19T19:48:56.052Z,3.20
2017-06-19T19:51:23.635Z,3.13
2017-06-19T19:53:52.283Z,2.83
2017-06-19T19:56:19.847Z,2.67
2017-06-19T19:58:47.434Z,3.07
2017-06-19T20:01:15.805Z,2.93
2017-06-19T20:03:44.158Z,3.40
2017-06-19T20:06:11.827Z,3.00
2017-06-19T20:08:39.438Z,2.90
2017-06-19T20:11:07.333Z,3.33
2017-06-19T20:13:34.943Z,3.10
2017-06-19T20:16:02.587Z,3.10
2017-06-19T20:18:30.934Z,3.90
2017-06-19T20:20:58.516Z,3.70
2017-06-19T20:23:26.092Z,3.40
2017-06-19T20:25:54.422Z,3.60
2017-06-19T20:28:22.011Z,3.70
2017-06-19T20:30:50.357Z,4.50
2017-06-19T20:33:18.359Z,3.57
2017-06-19T20:35:45.939Z,3.80
2017-06-19T20:38:13.523Z,3.10
2017-06-19T20:40:41.113Z,3.03
2017-06-19T20:43:08.688Z,3.60
2017-06-19T20:45:36.259Z,3.10
2017-06-19T20:48:04.598Z,3.50
2017-06-19T20:50:32.168Z,4.00
2017-06-19T20:52:59.741Z,4.00
2017-06-19T20:55:27.610Z,4.07
2017-06-19T20:57:55.165Z,4.37
2017-06-19T21:00:22.718Z,4.50
2017-06-19T21:02:50.313Z,4.60
2017-06-19T21:05:17.883Z,5.30
2017-06-19T21:07:45.778Z,5.40
2017-06-19T21:10:13.333Z,5.20
2017-06-19T21:12:40.885Z,5.10
2017-06-19T21:15:08.447Z,4.63
2017-06-19T21:17:36.005Z,4.80
2017-06-19T21:20:03.886Z,4.63
2017-06-19T21:22:31.452Z,4.87
2017-06-19T21:24:59.024Z,4.20
2017-06-19T21:27:26.619Z,4.77
2017-06-19T21:29:54.176Z,4.13
2017-06-19T21:32:22.013Z,4.40
2017-06-19T21:34:50.368Z,4.87
2017-06-19T21:37:17.949Z,4.20
2017-06-19T21:39:45.523Z,5.40
2017-06-19T21:42:13.845Z,7.20
2017-06-19T21:44:41.431Z,7.50
2017-06-19T21:47:09.025Z,6.67
2017-06-19T21:49:36.596Z,6.00
2017-06-19T21:52:04.172Z,7.83
2017-06-19T21:54:31.760Z,10.30
2017-06-19T21:56:59.318Z,11.87
2017-06-19T21:59:27.192Z,12.27
2017-06-19T22:01:54.999Z,10.20
2017-06-19T22:04:22.597Z,11.77
2017-06-19T22:06:50.179Z,10.03
2017-06-19T22:09:17.752Z,11.87
2017-06-19T22:11:46.350Z,10.43
2017-06-19T22:14:14.683Z,11.00
2017-06-19T22:16:42.272Z,10.50
2017-06-19T22:19:09.867Z,8.70
2017-06-19T22:21:43.209Z,7.70
2017-06-19T22:24:10.787Z,7.30
2017-06-19T22:26:39.121Z,7.10
2017-06-19T22:29:06.980Z,6.57
2017-06-19T22:31:34.591Z,6.00
2017-06-19T22:34:02.220Z,7.03
2017-06-19T22:36:29.810Z,5.70
2017-06-19T22:38:58.148Z,6.30
2017-06-19T22:41:26.020Z,5.67
2017-06-19T22:43:53.588Z,5.50
2017-06-19T22:46:21.144Z,5.67
2017-06-19T22:48:48.712Z,4.63
2017-06-19T22:51:16.271Z,5.00
2017-06-19T22:53:44.209Z,5.00
2017-06-19T22:56:11.764Z,4.80
2017-06-19T22:58:39.323Z,5.07
2017-06-19T23:01:06.887Z,4.90
2017-06-19T23:03:34.466Z,4.70
2017-06-19T23:06:02.291Z,4.63
2017-06-19T23:08:29.868Z,5.10
2017-06-19T23:10:57.432Z,4.77
2017-06-19T23:13:25.004Z,5.10
2017-06-19T23:15:52.567Z,5.27
2017-06-19T23:18:20.357Z,4.63
2017-06-19T23:20:47.943Z,4.80
2017-06-19T23:23:15.526Z,5.40
2017-06-19T23:25:43.101Z,5.70
2017-06-19T23:28:10.671Z,4.90
2017-06-19T23:30:38.525Z,5.30
2017-06-19T23:33:06.096Z,5.40
2017-06-19T23:35:33.660Z,5.20
2017-06-19T23:38:01.229Z,4.93
2017-06-19T23:40:29.567Z,5.20
2017-06-19T23:42:57.440Z,5.97
2017-06-19T23:45:25.004Z,5.40
2017-06-19T23:47:52.567Z,5.20
2017-06-19T23:50:20.155Z,4.70
2017-06-19T23:52:47.733Z,5.70
2017-06-19T23:55:15.643Z,5.00
2017-06-19T23:57:43.200Z,5.30
